Mr Thomas — WDD7163 — position and weather

sailwx.info

Track history (hours):
 
Tides and Currents Weather Stations Pressure Air Temp Water Temp Dewpoint Dewpoint Depression Visibility Wind Speed Wind Dir Waves Ship Positions

Mr Thomas

Owner: CENTRAL BOAT RENTALS, BERWICK, LA. More information available from US FCC via Universal Licensing System and Coast Guard Vessel Documentation Center.

Last reported at 2015-May-25 20:26 UTC. Time now 2015-May-30 18:38 UTC.
Position N 29°32' W 090°51'.

Length 21 m.

Type: Tug. MMSI: 367182730.

Date/timePositionNaut miles runAvg speedWind from/ knotsBaromVisibWave heightAir tempDewpointWater temp
2015-May-25 20:26N 29°32' W 090°51'6 6.6
2015-May-25 19:33N 29°34' W 090°45'5 4.9
2015-May-25 18:33N 29°29' W 090°43'8 7.1
2015-May-25 17:28N 29°21' W 090°44'3 0.1
2015-May-24 12:20N 29°24' W 090°44'6 8.3
2015-May-24 11:33N 29°30' W 090°43'2 2.1
2015-May-24 10:33N 29°33' W 090°43'2 2.3
2015-May-24 09:32N 29°33' W 090°45'5 5.1
2015-May-24 08:33N 29°32' W 090°51'3 0.1
2015-May-23 01:33N 29°32' W 090°47'4 4.3
2015-May-23 00:33N 29°32' W 090°42'8 7.8
2015-May-22 23:33N 29°24' W 090°44'2 0.2
2015-May-22 14:33N 29°27' W 090°43'5 5.4
2015-May-22 13:33N 29°32' W 090°42'1 0.7
2015-May-22 12:32N 29°33' W 090°42'0 0.0
2015-May-22 11:29N 29°33' W 090°42'0 0.0
2015-May-22 10:32N 29°33' W 090°42'0 0.0
2015-May-22 09:32N 29°33' W 090°42'0 0.0
2015-May-22 08:32N 29°33' W 090°42'0 0.0
2015-May-22 07:32N 29°33' W 090°42'0 0.0
2015-May-22 06:32N 29°33' W 090°42'0 0.0
2015-May-22 05:32N 29°33' W 090°42'0 0.0
2015-May-22 04:32N 29°33' W 090°42'4 4.4
2015-May-22 03:33N 29°32' W 090°47'8 8.1
2015-May-22 02:33N 29°34' W 090°56'  
Track history (hours):
 
Tides and Currents Weather Stations Pressure Air Temp Water Temp Dewpoint Dewpoint Depression Visibility Wind Speed Wind Dir Waves Ship Positions

Mr Thomas

Owner: CENTRAL BOAT RENTALS, BERWICK, LA. More information available from US FCC via Universal Licensing System and Coast Guard Vessel Documentation Center.

Last reported at 2015-May-25 20:26 UTC. Time now 2015-May-30 18:38 UTC.
Position N 29°32' W 090°51'.

Length 21 m.

Type: Tug. MMSI: 367182730.

Date/timePositionNaut miles runAvg speedWind from/ knotsBaromVisibWave heightAir tempDewpointWater temp
2015-May-25 20:26N 29°32' W 090°51'6 6.6
2015-May-25 19:33N 29°34' W 090°45'5 4.9
2015-May-25 18:33N 29°29' W 090°43'8 7.1
2015-May-25 17:28N 29°21' W 090°44'3 0.1
2015-May-24 12:20N 29°24' W 090°44'6 8.3
2015-May-24 11:33N 29°30' W 090°43'2 2.1
2015-May-24 10:33N 29°33' W 090°43'2 2.3
2015-May-24 09:32N 29°33' W 090°45'5 5.1
2015-May-24 08:33N 29°32' W 090°51'3 0.1
2015-May-23 01:33N 29°32' W 090°47'4 4.3
2015-May-23 00:33N 29°32' W 090°42'8 7.8
2015-May-22 23:33N 29°24' W 090°44'2 0.2
2015-May-22 14:33N 29°27' W 090°43'5 5.4
2015-May-22 13:33N 29°32' W 090°42'1 0.7
2015-May-22 12:32N 29°33' W 090°42'0 0.0
2015-May-22 11:29N 29°33' W 090°42'0 0.0
2015-May-22 10:32N 29°33' W 090°42'0 0.0
2015-May-22 09:32N 29°33' W 090°42'0 0.0
2015-May-22 08:32N 29°33' W 090°42'0 0.0
2015-May-22 07:32N 29°33' W 090°42'0 0.0
2015-May-22 06:32N 29°33' W 090°42'0 0.0
2015-May-22 05:32N 29°33' W 090°42'0 0.0
2015-May-22 04:32N 29°33' W 090°42'4 4.4
2015-May-22 03:33N 29°32' W 090°47'8 8.1
2015-May-22 02:33N 29°34' W 090°56'  

Dump ship's entire track history